sensor_id;sensor_type;location;lat;lon;timestamp;P1;durP1;ratioP1;P2;durP2;ratioP2
13933;SDS011;7039;52.168;9.866;2023-04-24T00:00:44;1.73;;;1.00;;
13933;SDS011;7039;52.168;9.866;2023-04-24T00:03:11;1.20;;;0.97;;
13933;SDS011;7039;52.168;9.866;2023-04-24T00:05:39;1.67;;;1.00;;
13933;SDS011;7039;52.168;9.866;2023-04-24T00:08:06;2.40;;;1.10;;
13933;SDS011;7039;52.168;9.866;2023-04-24T00:10:32;3.43;;;1.10;;
13933;SDS011;7039;52.168;9.866;2023-04-24T00:12:59;2.93;;;1.30;;
13933;SDS011;7039;52.168;9.866;2023-04-24T00:15:26;1.20;;;1.10;;
13933;SDS011;7039;52.168;9.866;2023-04-24T00:17:53;1.10;;;1.00;;
13933;SDS011;7039;52.168;9.866;2023-04-24T00:20:19;1.23;;;1.03;;
13933;SDS011;7039;52.168;9.866;2023-04-24T00:22:47;1.53;;;1.40;;
13933;SDS011;7039;52.168;9.866;2023-04-24T00:25:14;1.57;;;1.10;;
13933;SDS011;7039;52.168;9.866;2023-04-24T00:27:41;3.43;;;1.30;;
13933;SDS011;7039;52.168;9.866;2023-04-24T00:30:07;5.90;;;1.40;;
13933;SDS011;7039;52.168;9.866;2023-04-24T00:32:36;2.10;;;1.40;;
13933;SDS011;7039;52.168;9.866;2023-04-24T00:35:02;3.87;;;1.30;;
13933;SDS011;7039;52.168;9.866;2023-04-24T00:37:30;1.97;;;1.10;;
13933;SDS011;7039;52.168;9.866;2023-04-24T00:39:57;3.60;;;1.40;;
13933;SDS011;7039;52.168;9.866;2023-04-24T00:42:24;3.33;;;1.20;;
13933;SDS011;7039;52.168;9.866;2023-04-24T00:44:51;5.37;;;1.50;;
13933;SDS011;7039;52.168;9.866;2023-04-24T00:47:17;1.43;;;1.20;;
13933;SDS011;7039;52.168;9.866;2023-04-24T00:49:46;1.53;;;1.20;;
13933;SDS011;7039;52.168;9.866;2023-04-24T00:52:12;1.60;;;1.30;;
13933;SDS011;7039;52.168;9.866;2023-04-24T00:54:42;2.53;;;1.30;;
13933;SDS011;7039;52.168;9.866;2023-04-24T00:57:09;2.10;;;1.30;;
13933;SDS011;7039;52.168;9.866;2023-04-24T00:59:35;3.73;;;1.20;;
13933;SDS011;7039;52.168;9.866;2023-04-24T01:02:02;1.43;;;1.30;;
13933;SDS011;7039;52.168;9.866;2023-04-24T01:04:29;6.03;;;1.20;;
13933;SDS011;7039;52.168;9.866;2023-04-24T01:06:57;2.13;;;1.30;;
13933;SDS011;7039;52.168;9.866;2023-04-24T01:09:23;1.40;;;1.30;;
13933;SDS011;7039;52.168;9.866;2023-04-24T01:11:51;2.63;;;1.30;;
13933;SDS011;7039;52.168;9.866;2023-04-24T01:14:17;1.20;;;1.10;;
13933;SDS011;7039;52.168;9.866;2023-04-24T01:16:44;1.13;;;1.00;;
13933;SDS011;7039;52.168;9.866;2023-04-24T01:19:10;2.87;;;1.27;;
13933;SDS011;7039;52.168;9.866;2023-04-24T01:21:37;1.47;;;1.20;;
13933;SDS011;7039;52.168;9.866;2023-04-24T01:24:06;1.97;;;1.40;;
13933;SDS011;7039;52.168;9.866;2023-04-24T01:26:33;2.50;;;0.90;;
13933;SDS011;7039;52.168;9.866;2023-04-24T01:29:00;3.83;;;1.20;;
13933;SDS011;7039;52.168;9.866;2023-04-24T01:31:26;3.33;;;1.10;;
13933;SDS011;7039;52.168;9.866;2023-04-24T01:33:53;2.70;;;1.30;;
13933;SDS011;7039;52.168;9.866;2023-04-24T01:36:20;1.87;;;1.00;;
13933;SDS011;7039;52.168;9.866;2023-04-24T01:38:47;1.50;;;1.27;;
13933;SDS011;7039;52.168;9.866;2023-04-24T01:41:15;1.90;;;1.10;;
13933;SDS011;7039;52.168;9.866;2023-04-24T01:43:42;3.67;;;1.40;;
13933;SDS011;7039;52.168;9.866;2023-04-24T01:46:08;3.37;;;1.13;;
13933;SDS011;7039;52.168;9.866;2023-04-24T01:48:35;2.67;;;1.03;;
13933;SDS011;7039;52.168;9.866;2023-04-24T01:51:01;4.83;;;1.03;;
13933;SDS011;7039;52.168;9.866;2023-04-24T01:53:28;1.83;;;1.10;;
13933;SDS011;7039;52.168;9.866;2023-04-24T01:55:54;1.37;;;0.93;;
13933;SDS011;7039;52.168;9.866;2023-04-24T01:58:22;3.23;;;1.10;;
13933;SDS011;7039;52.168;9.866;2023-04-24T02:00:49;2.10;;;1.10;;
13933;SDS011;7039;52.168;9.866;2023-04-24T02:03:15;2.63;;;1.10;;
13933;SDS011;7039;52.168;9.866;2023-04-24T02:05:43;2.37;;;1.00;;
13933;SDS011;7039;52.168;9.866;2023-04-24T02:08:09;2.57;;;0.90;;
13933;SDS011;7039;52.168;9.866;2023-04-24T02:10:36;1.70;;;1.20;;
13933;SDS011;7039;52.168;9.866;2023-04-24T02:13:02;1.10;;;1.00;;
13933;SDS011;7039;52.168;9.866;2023-04-24T02:15:31;1.97;;;1.10;;
13933;SDS011;7039;52.168;9.866;2023-04-24T02:17:57;1.40;;;0.90;;
13933;SDS011;7039;52.168;9.866;2023-04-24T02:20:23;1.83;;;1.20;;
13933;SDS011;7039;52.168;9.866;2023-04-24T02:22:50;2.20;;;0.90;;
13933;SDS011;7039;52.168;9.866;2023-04-24T02:25:16;1.10;;;1.00;;
13933;SDS011;7039;52.168;9.866;2023-04-24T02:27:43;3.17;;;1.40;;
13933;SDS011;7039;52.168;9.866;2023-04-24T02:30:10;1.47;;;0.90;;
13933;SDS011;7039;52.168;9.866;2023-04-24T02:32:38;1.33;;;1.00;;
13933;SDS011;7039;52.168;9.866;2023-04-24T02:35:05;1.60;;;1.00;;
13933;SDS011;7039;52.168;9.866;2023-04-24T02:37:32;1.53;;;1.17;;
13933;SDS011;7039;52.168;9.866;2023-04-24T02:39:58;6.43;;;1.10;;
13933;SDS011;7039;52.168;9.866;2023-04-24T02:42:25;1.07;;;0.90;;
13933;SDS011;7039;52.168;9.866;2023-04-24T02:44:51;2.67;;;1.00;;
13933;SDS011;7039;52.168;9.866;2023-04-24T02:47:18;1.53;;;0.90;;
13933;SDS011;7039;52.168;9.866;2023-04-24T02:49:46;0.80;;;0.73;;
13933;SDS011;7039;52.168;9.866;2023-04-24T02:52:12;1.00;;;0.83;;
13933;SDS011;7039;52.168;9.866;2023-04-24T02:54:39;1.00;;;0.80;;
13933;SDS011;7039;52.168;9.866;2023-04-24T02:57:06;1.37;;;0.80;;
13933;SDS011;7039;52.168;9.866;2023-04-24T02:59:32;6.00;;;1.00;;
13933;SDS011;7039;52.168;9.866;2023-04-24T03:01:59;2.03;;;1.00;;
13933;SDS011;7039;52.168;9.866;2023-04-24T03:04:25;0.90;;;0.80;;
13933;SDS011;7039;52.168;9.866;2023-04-24T03:06:53;2.20;;;0.97;;
13933;SDS011;7039;52.168;9.866;2023-04-24T03:09:20;1.10;;;0.90;;
13933;SDS011;7039;52.168;9.866;2023-04-24T03:11:46;1.17;;;1.00;;
13933;SDS011;7039;52.168;9.866;2023-04-24T03:14:13;1.10;;;0.90;;
13933;SDS011;7039;52.168;9.866;2023-04-24T03:16:40;0.80;;;0.80;;
13933;SDS011;7039;52.168;9.866;2023-04-24T03:19:06;1.50;;;0.80;;
13933;SDS011;7039;52.168;9.866;2023-04-24T03:21:33;2.00;;;0.80;;
13933;SDS011;7039;52.168;9.866;2023-04-24T03:24:02;0.73;;;0.70;;
13933;SDS011;7039;52.168;9.866;2023-04-24T03:26:28;1.23;;;0.77;;
13933;SDS011;7039;52.168;9.866;2023-04-24T03:28:55;1.17;;;0.70;;
13933;SDS011;7039;52.168;9.866;2023-04-24T03:31:21;0.77;;;0.77;;
13933;SDS011;7039;52.168;9.866;2023-04-24T03:33:48;7.77;;;1.43;;
13933;SDS011;7039;52.168;9.866;2023-04-24T03:36:14;2.10;;;0.77;;
13933;SDS011;7039;52.168;9.866;2023-04-24T03:38:41;2.87;;;0.70;;
13933;SDS011;7039;52.168;9.866;2023-04-24T03:41:09;1.57;;;0.73;;
13933;SDS011;7039;52.168;9.866;2023-04-24T03:43:35;0.60;;;0.60;;
13933;SDS011;7039;52.168;9.866;2023-04-24T03:46:03;0.70;;;0.70;;
13933;SDS011;7039;52.168;9.866;2023-04-24T03:48:29;2.27;;;0.77;;
13933;SDS011;7039;52.168;9.866;2023-04-24T03:50:56;1.23;;;0.73;;
13933;SDS011;7039;52.168;9.866;2023-04-24T03:53:22;1.10;;;0.70;;
13933;SDS011;7039;52.168;9.866;2023-04-24T03:55:49;1.73;;;0.77;;
13933;SDS011;7039;52.168;9.866;2023-04-24T03:58:17;1.00;;;0.70;;
13933;SDS011;7039;52.168;9.866;2023-04-24T04:00:43;1.17;;;0.70;;
13933;SDS011;7039;52.168;9.866;2023-04-24T04:03:11;2.93;;;0.73;;
13933;SDS011;7039;52.168;9.866;2023-04-24T04:05:38;2.57;;;1.10;;
13933;SDS011;7039;52.168;9.866;2023-04-24T04:08:04;3.50;;;1.63;;
13933;SDS011;7039;52.168;9.866;2023-04-24T04:10:31;2.90;;;1.60;;
13933;SDS011;7039;52.168;9.866;2023-04-24T04:12:57;1.47;;;0.90;;
13933;SDS011;7039;52.168;9.866;2023-04-24T04:15:25;1.83;;;0.90;;
13933;SDS011;7039;52.168;9.866;2023-04-24T04:17:51;3.40;;;1.00;;
13933;SDS011;7039;52.168;9.866;2023-04-24T04:20:18;1.40;;;0.90;;
13933;SDS011;7039;52.168;9.866;2023-04-24T04:22:44;1.00;;;0.77;;
13933;SDS011;7039;52.168;9.866;2023-04-24T04:25:11;2.97;;;0.90;;
13933;SDS011;7039;52.168;9.866;2023-04-24T04:27:38;1.87;;;0.90;;
13933;SDS011;7039;52.168;9.866;2023-04-24T04:30:07;0.73;;;0.70;;
13933;SDS011;7039;52.168;9.866;2023-04-24T04:32:37;5.90;;;0.80;;
13933;SDS011;7039;52.168;9.866;2023-04-24T04:35:03;1.27;;;0.90;;
13933;SDS011;7039;52.168;9.866;2023-04-24T04:37:30;1.47;;;0.93;;
13933;SDS011;7039;52.168;9.866;2023-04-24T04:39:58;0.93;;;0.70;;
13933;SDS011;7039;52.168;9.866;2023-04-24T04:42:24;2.17;;;0.80;;
13933;SDS011;7039;52.168;9.866;2023-04-24T04:44:51;1.33;;;0.90;;
13933;SDS011;7039;52.168;9.866;2023-04-24T04:47:18;4.43;;;0.80;;
13933;SDS011;7039;52.168;9.866;2023-04-24T04:49:49;1.43;;;0.60;;
13933;SDS011;7039;52.168;9.866;2023-04-24T04:52:16;1.77;;;0.73;;
13933;SDS011;7039;52.168;9.866;2023-04-24T04:54:42;1.20;;;0.83;;
13933;SDS011;7039;52.168;9.866;2023-04-24T04:57:09;2.47;;;0.90;;
13933;SDS011;7039;52.168;9.866;2023-04-24T04:59:37;3.30;;;1.20;;
13933;SDS011;7039;52.168;9.866;2023-04-24T05:02:03;1.70;;;1.57;;
13933;SDS011;7039;52.168;9.866;2023-04-24T05:04:30;2.00;;;1.80;;
13933;SDS011;7039;52.168;9.866;2023-04-24T05:06:57;1.77;;;1.60;;
13933;SDS011;7039;52.168;9.866;2023-04-24T05:09:24;5.27;;;4.77;;
13933;SDS011;7039;52.168;9.866;2023-04-24T05:11:52;1.87;;;1.57;;
13933;SDS011;7039;52.168;9.866;2023-04-24T05:14:18;2.30;;;1.00;;
13933;SDS011;7039;52.168;9.866;2023-04-24T05:16:45;2.20;;;1.40;;
13933;SDS011;7039;52.168;9.866;2023-04-24T05:19:12;2.70;;;1.20;;
13933;SDS011;7039;52.168;9.866;2023-04-24T05:21:39;1.00;;;0.90;;
13933;SDS011;7039;52.168;9.866;2023-04-24T05:24:07;3.43;;;0.90;;
13933;SDS011;7039;52.168;9.866;2023-04-24T05:26:33;0.90;;;0.80;;
13933;SDS011;7039;52.168;9.866;2023-04-24T05:29:00;1.30;;;1.10;;
13933;SDS011;7039;52.168;9.866;2023-04-24T05:31:27;1.70;;;0.80;;
13933;SDS011;7039;52.168;9.866;2023-04-24T05:33:53;1.03;;;0.80;;
13933;SDS011;7039;52.168;9.866;2023-04-24T05:36:20;1.00;;;0.90;;
13933;SDS011;7039;52.168;9.866;2023-04-24T05:38:46;0.93;;;0.90;;
13933;SDS011;7039;52.168;9.866;2023-04-24T05:41:14;0.83;;;0.80;;
13933;SDS011;7039;52.168;9.866;2023-04-24T05:43:41;2.63;;;1.43;;
13933;SDS011;7039;52.168;9.866;2023-04-24T05:46:07;0.80;;;0.80;;
13933;SDS011;7039;52.168;9.866;2023-04-24T05:48:33;2.07;;;1.30;;
13933;SDS011;7039;52.168;9.866;2023-04-24T05:51:00;1.80;;;0.60;;
13933;SDS011;7039;52.168;9.866;2023-04-24T05:53:26;1.47;;;0.90;;
13933;SDS011;7039;52.168;9.866;2023-04-24T05:55:53;6.70;;;0.87;;
13933;SDS011;7039;52.168;9.866;2023-04-24T05:58:21;2.10;;;1.20;;
13933;SDS011;7039;52.168;9.866;2023-04-24T06:00:47;0.80;;;0.80;;
13933;SDS011;7039;52.168;9.866;2023-04-24T06:03:14;0.97;;;0.70;;
13933;SDS011;7039;52.168;9.866;2023-04-24T06:05:41;1.63;;;0.80;;
13933;SDS011;7039;52.168;9.866;2023-04-24T06:08:07;2.07;;;0.60;;
13933;SDS011;7039;52.168;9.866;2023-04-24T06:10:34;1.20;;;0.80;;
13933;SDS011;7039;52.168;9.866;2023-04-24T06:13:00;0.50;;;0.50;;
13933;SDS011;7039;52.168;9.866;2023-04-24T06:15:29;0.80;;;0.60;;
13933;SDS011;7039;52.168;9.866;2023-04-24T06:17:56;0.70;;;0.70;;
13933;SDS011;7039;52.168;9.866;2023-04-24T06:20:23;1.80;;;1.10;;
13933;SDS011;7039;52.168;9.866;2023-04-24T06:22:50;1.13;;;0.70;;
13933;SDS011;7039;52.168;9.866;2023-04-24T06:25:16;4.40;;;0.90;;
13933;SDS011;7039;52.168;9.866;2023-04-24T06:27:43;1.97;;;1.20;;
13933;SDS011;7039;52.168;9.866;2023-04-24T06:30:09;1.80;;;1.00;;
13933;SDS011;7039;52.168;9.866;2023-04-24T06:32:37;1.30;;;1.20;;
13933;SDS011;7039;52.168;9.866;2023-04-24T06:35:04;2.40;;;1.50;;
13933;SDS011;7039;52.168;9.866;2023-04-24T06:37:32;1.27;;;1.17;;
13933;SDS011;7039;52.168;9.866;2023-04-24T06:39:58;1.53;;;1.37;;
13933;SDS011;7039;52.168;9.866;2023-04-24T06:42:25;2.03;;;1.40;;
13933;SDS011;7039;52.168;9.866;2023-04-24T06:44:51;1.43;;;1.30;;
13933;SDS011;7039;52.168;9.866;2023-04-24T06:47:18;1.40;;;1.30;;
13933;SDS011;7039;52.168;9.866;2023-04-24T06:49:46;3.87;;;1.80;;
13933;SDS011;7039;52.168;9.866;2023-04-24T06:52:12;4.07;;;1.60;;
13933;SDS011;7039;52.168;9.866;2023-04-24T06:54:39;1.87;;;1.70;;
13933;SDS011;7039;52.168;9.866;2023-04-24T06:57:05;2.87;;;1.70;;
13933;SDS011;7039;52.168;9.866;2023-04-24T06:59:31;1.97;;;1.63;;
13933;SDS011;7039;52.168;9.866;2023-04-24T07:01:58;2.43;;;1.40;;
13933;SDS011;7039;52.168;9.866;2023-04-24T07:04:24;1.60;;;1.50;;
13933;SDS011;7039;52.168;9.866;2023-04-24T07:06:52;2.37;;;1.50;;
13933;SDS011;7039;52.168;9.866;2023-04-24T07:09:20;10.33;;;1.90;;
13933;SDS011;7039;52.168;9.866;2023-04-24T07:11:48;3.03;;;2.20;;
13933;SDS011;7039;52.168;9.866;2023-04-24T07:14:15;2.30;;;2.10;;
13933;SDS011;7039;52.168;9.866;2023-04-24T07:16:42;2.23;;;2.00;;
13933;SDS011;7039;52.168;9.866;2023-04-24T07:19:08;2.77;;;2.13;;
13933;SDS011;7039;52.168;9.866;2023-04-24T07:21:35;3.13;;;2.43;;
13933;SDS011;7039;52.168;9.866;2023-04-24T07:24:03;4.17;;;2.87;;
13933;SDS011;7039;52.168;9.866;2023-04-24T07:26:29;5.17;;;3.10;;
13933;SDS011;7039;52.168;9.866;2023-04-24T07:28:56;5.53;;;3.73;;
13933;SDS011;7039;52.168;9.866;2023-04-24T07:31:23;4.40;;;3.60;;
13933;SDS011;7039;52.168;9.866;2023-04-24T07:33:50;5.47;;;3.57;;
13933;SDS011;7039;52.168;9.866;2023-04-24T07:36:16;5.63;;;3.33;;
13933;SDS011;7039;52.168;9.866;2023-04-24T07:38:44;5.57;;;4.73;;
13933;SDS011;7039;52.168;9.866;2023-04-24T07:41:12;5.30;;;4.60;;
13933;SDS011;7039;52.168;9.866;2023-04-24T07:43:38;8.27;;;4.27;;
13933;SDS011;7039;52.168;9.866;2023-04-24T07:46:05;6.37;;;4.90;;
13933;SDS011;7039;52.168;9.866;2023-04-24T07:48:31;6.03;;;4.87;;
13933;SDS011;7039;52.168;9.866;2023-04-24T07:50:58;5.07;;;4.00;;
13933;SDS011;7039;52.168;9.866;2023-04-24T07:53:24;4.87;;;4.00;;
13933;SDS011;7039;52.168;9.866;2023-04-24T07:55:51;9.07;;;5.63;;
13933;SDS011;7039;52.168;9.866;2023-04-24T07:58:19;6.83;;;5.00;;
13933;SDS011;7039;52.168;9.866;2023-04-24T08:00:45;8.57;;;5.37;;
13933;SDS011;7039;52.168;9.866;2023-04-24T08:03:12;8.17;;;5.77;;
13933;SDS011;7039;52.168;9.866;2023-04-24T08:05:38;9.50;;;4.93;;
13933;SDS011;7039;52.168;9.866;2023-04-24T08:08:05;7.83;;;5.27;;
13933;SDS011;7039;52.168;9.866;2023-04-24T08:10:31;6.70;;;4.67;;
13933;SDS011;7039;52.168;9.866;2023-04-24T08:12:58;7.17;;;5.03;;
13933;SDS011;7039;52.168;9.866;2023-04-24T08:15:26;5.60;;;4.60;;
13933;SDS011;7039;52.168;9.866;2023-04-24T08:17:53;7.00;;;5.20;;
13933;SDS011;7039;52.168;9.866;2023-04-24T08:20:20;7.40;;;4.97;;
13933;SDS011;7039;52.168;9.866;2023-04-24T08:22:46;8.43;;;5.70;;
13933;SDS011;7039;52.168;9.866;2023-04-24T08:25:13;7.67;;;5.20;;
13933;SDS011;7039;52.168;9.866;2023-04-24T08:27:40;6.60;;;4.60;;
13933;SDS011;7039;52.168;9.866;2023-04-24T08:30:07;4.73;;;3.77;;
13933;SDS011;7039;52.168;9.866;2023-04-24T08:32:35;6.97;;;4.83;;
13933;SDS011;7039;52.168;9.866;2023-04-24T08:35:02;3.77;;;3.23;;
13933;SDS011;7039;52.168;9.866;2023-04-24T08:37:29;5.93;;;4.07;;
13933;SDS011;7039;52.168;9.866;2023-04-24T08:39:55;7.70;;;4.67;;
13933;SDS011;7039;52.168;9.866;2023-04-24T08:42:22;7.00;;;4.07;;
13933;SDS011;7039;52.168;9.866;2023-04-24T08:44:49;5.00;;;3.83;;
13933;SDS011;7039;52.168;9.866;2023-04-24T08:47:16;5.37;;;3.13;;
13933;SDS011;7039;52.168;9.866;2023-04-24T08:49:44;4.13;;;3.30;;
13933;SDS011;7039;52.168;9.866;2023-04-24T08:52:11;3.63;;;2.87;;
13933;SDS011;7039;52.168;9.866;2023-04-24T08:54:38;4.53;;;3.10;;
13933;SDS011;7039;52.168;9.866;2023-04-24T08:57:06;4.40;;;3.20;;
13933;SDS011;7039;52.168;9.866;2023-04-24T08:59:34;4.47;;;3.70;;
13933;SDS011;7039;52.168;9.866;2023-04-24T09:02:01;4.73;;;3.70;;
13933;SDS011;7039;52.168;9.866;2023-04-24T09:04:29;3.63;;;2.97;;
13933;SDS011;7039;52.168;9.866;2023-04-24T09:06:58;5.30;;;3.43;;
13933;SDS011;7039;52.168;9.866;2023-04-24T09:09:25;4.10;;;3.00;;
13933;SDS011;7039;52.168;9.866;2023-04-24T09:11:52;4.90;;;3.30;;
13933;SDS011;7039;52.168;9.866;2023-04-24T09:14:20;4.07;;;2.87;;
13933;SDS011;7039;52.168;9.866;2023-04-24T09:16:48;4.13;;;3.50;;
13933;SDS011;7039;52.168;9.866;2023-04-24T09:19:15;4.40;;;3.70;;
13933;SDS011;7039;52.168;9.866;2023-04-24T09:21:42;5.83;;;3.27;;
13933;SDS011;7039;52.168;9.866;2023-04-24T09:24:16;3.53;;;2.80;;
13933;SDS011;7039;52.168;9.866;2023-04-24T09:26:45;7.60;;;3.30;;
13933;SDS011;7039;52.168;9.866;2023-04-24T09:29:14;3.53;;;2.90;;
13933;SDS011;7039;52.168;9.866;2023-04-24T09:31:41;5.40;;;2.97;;
13933;SDS011;7039;52.168;9.866;2023-04-24T09:34:08;4.23;;;3.07;;
13933;SDS011;7039;52.168;9.866;2023-04-24T09:36:35;3.87;;;2.70;;
13933;SDS011;7039;52.168;9.866;2023-04-24T09:39:04;3.40;;;2.70;;
13933;SDS011;7039;52.168;9.866;2023-04-24T09:41:35;2.37;;;2.17;;
13933;SDS011;7039;52.168;9.866;2023-04-24T09:44:10;3.03;;;2.17;;
13933;SDS011;7039;52.168;9.866;2023-04-24T09:46:38;3.47;;;2.30;;
13933;SDS011;7039;52.168;9.866;2023-04-24T09:49:07;3.93;;;2.73;;
13933;SDS011;7039;52.168;9.866;2023-04-24T09:51:36;3.73;;;2.57;;
13933;SDS011;7039;52.168;9.866;2023-04-24T09:54:03;3.20;;;2.27;;
13933;SDS011;7039;52.168;9.866;2023-04-24T09:56:39;4.30;;;2.60;;
13933;SDS011;7039;52.168;9.866;2023-04-24T09:59:08;2.53;;;2.23;;
13933;SDS011;7039;52.168;9.866;2023-04-24T10:01:34;4.07;;;1.93;;
13933;SDS011;7039;52.168;9.866;2023-04-24T10:04:03;1.93;;;1.73;;
13933;SDS011;7039;52.168;9.866;2023-04-24T10:06:32;3.60;;;2.20;;
13933;SDS011;7039;52.168;9.866;2023-04-24T10:08:59;2.00;;;1.63;;
13933;SDS011;7039;52.168;9.866;2023-04-24T10:11:26;2.67;;;2.00;;
13933;SDS011;7039;52.168;9.866;2023-04-24T10:13:54;3.53;;;2.47;;
13933;SDS011;7039;52.168;9.866;2023-04-24T10:16:22;3.13;;;2.17;;
13933;SDS011;7039;52.168;9.866;2023-04-24T10:18:49;3.40;;;2.07;;
13933;SDS011;7039;52.168;9.866;2023-04-24T10:21:17;3.13;;;2.43;;
13933;SDS011;7039;52.168;9.866;2023-04-24T10:23:44;3.30;;;2.20;;
13933;SDS011;7039;52.168;9.866;2023-04-24T10:26:12;3.87;;;2.67;;
13933;SDS011;7039;52.168;9.866;2023-04-24T10:28:42;3.97;;;2.27;;
13933;SDS011;7039;52.168;9.866;2023-04-24T10:31:12;4.97;;;2.63;;
13933;SDS011;7039;52.168;9.866;2023-04-24T10:33:38;6.97;;;4.00;;
13933;SDS011;7039;52.168;9.866;2023-04-24T10:36:07;3.87;;;2.57;;
13933;SDS011;7039;52.168;9.866;2023-04-24T10:38:35;3.83;;;3.30;;
13933;SDS011;7039;52.168;9.866;2023-04-24T10:41:08;4.07;;;3.33;;
13933;SDS011;7039;52.168;9.866;2023-04-24T10:43:41;5.73;;;3.77;;
13933;SDS011;7039;52.168;9.866;2023-04-24T10:46:08;3.40;;;2.50;;
13933;SDS011;7039;52.168;9.866;2023-04-24T10:48:37;3.53;;;2.43;;
13933;SDS011;7039;52.168;9.866;2023-04-24T10:51:10;3.40;;;2.40;;
13933;SDS011;7039;52.168;9.866;2023-04-24T10:53:39;6.27;;;2.87;;
13933;SDS011;7039;52.168;9.866;2023-04-24T10:56:06;3.90;;;2.57;;
13933;SDS011;7039;52.168;9.866;2023-04-24T10:58:38;2.10;;;1.90;;
13933;SDS011;7039;52.168;9.866;2023-04-24T11:01:05;3.60;;;2.37;;
13933;SDS011;7039;52.168;9.866;2023-04-24T11:03:33;3.37;;;2.60;;
13933;SDS011;7039;52.168;9.866;2023-04-24T11:06:03;1.97;;;1.60;;
13933;SDS011;7039;52.168;9.866;2023-04-24T11:08:32;1.57;;;1.40;;
13933;SDS011;7039;52.168;9.866;2023-04-24T11:11:08;1.63;;;1.10;;
13933;SDS011;7039;52.168;9.866;2023-04-24T11:16:28;2.67;;;1.50;;
13933;SDS011;7039;52.168;9.866;2023-04-24T11:19:02;1.40;;;1.20;;
13933;SDS011;7039;52.168;9.866;2023-04-24T11:24:30;1.03;;;0.93;;
13933;SDS011;7039;52.168;9.866;2023-04-24T11:26:58;1.60;;;1.50;;
13933;SDS011;7039;52.168;9.866;2023-04-24T11:29:38;1.13;;;1.03;;
13933;SDS011;7039;52.168;9.866;2023-04-24T11:32:16;1.50;;;1.37;;
13933;SDS011;7039;52.168;9.866;2023-04-24T11:34:45;3.00;;;1.60;;
13933;SDS011;7039;52.168;9.866;2023-04-24T11:37:14;4.63;;;2.47;;
13933;SDS011;7039;52.168;9.866;2023-04-24T11:39:41;3.20;;;2.00;;
13933;SDS011;7039;52.168;9.866;2023-04-24T11:42:08;1.97;;;1.47;;
13933;SDS011;7039;52.168;9.866;2023-04-24T11:44:35;1.83;;;1.63;;
13933;SDS011;7039;52.168;9.866;2023-04-24T11:47:03;2.43;;;1.90;;
13933;SDS011;7039;52.168;9.866;2023-04-24T11:49:29;3.30;;;1.77;;
13933;SDS011;7039;52.168;9.866;2023-04-24T11:51:56;1.40;;;1.30;;
13933;SDS011;7039;52.168;9.866;2023-04-24T11:54:24;2.03;;;1.83;;
13933;SDS011;7039;52.168;9.866;2023-04-24T11:56:50;1.57;;;1.40;;
13933;SDS011;7039;52.168;9.866;2023-04-24T11:59:17;1.90;;;1.60;;
13933;SDS011;7039;52.168;9.866;2023-04-24T12:01:43;1.87;;;1.67;;
13933;SDS011;7039;52.168;9.866;2023-04-24T12:04:11;1.53;;;1.43;;
13933;SDS011;7039;52.168;9.866;2023-04-24T12:06:37;1.60;;;1.50;;
13933;SDS011;7039;52.168;9.866;2023-04-24T12:09:04;4.27;;;1.63;;
13933;SDS011;7039;52.168;9.866;2023-04-24T12:11:32;3.93;;;2.17;;
13933;SDS011;7039;52.168;9.866;2023-04-24T12:14:09;2.97;;;2.03;;
13933;SDS011;7039;52.168;9.866;2023-04-24T12:16:36;1.90;;;1.60;;
13933;SDS011;7039;52.168;9.866;2023-04-24T12:19:02;2.40;;;1.37;;
13933;SDS011;7039;52.168;9.866;2023-04-24T12:21:31;0.80;;;0.80;;
13933;SDS011;7039;52.168;9.866;2023-04-24T12:23:57;2.83;;;0.70;;
13933;SDS011;7039;52.168;9.866;2023-04-24T12:26:24;1.00;;;0.80;;
13933;SDS011;7039;52.168;9.866;2023-04-24T12:28:52;1.50;;;1.10;;
13933;SDS011;7039;52.168;9.866;2023-04-24T12:31:20;1.17;;;1.07;;
13933;SDS011;7039;52.168;9.866;2023-04-24T12:33:47;1.63;;;1.33;;
13933;SDS011;7039;52.168;9.866;2023-04-24T12:36:13;1.50;;;1.33;;
13933;SDS011;7039;52.168;9.866;2023-04-24T12:38:42;1.20;;;1.10;;
13933;SDS011;7039;52.168;9.866;2023-04-24T12:41:11;2.80;;;1.10;;
13933;SDS011;7039;52.168;9.866;2023-04-24T12:43:51;1.00;;;1.00;;
13933;SDS011;7039;52.168;9.866;2023-04-24T12:46:18;1.23;;;0.93;;
13933;SDS011;7039;52.168;9.866;2023-04-24T12:48:45;1.40;;;1.30;;
13933;SDS011;7039;52.168;9.866;2023-04-24T12:51:11;2.93;;;1.57;;
13933;SDS011;7039;52.168;9.866;2023-04-24T12:53:38;2.63;;;1.87;;
13933;SDS011;7039;52.168;9.866;2023-04-24T12:56:04;2.30;;;1.00;;
13933;SDS011;7039;52.168;9.866;2023-04-24T12:58:31;1.43;;;1.20;;
13933;SDS011;7039;52.168;9.866;2023-04-24T13:00:58;1.70;;;1.33;;
13933;SDS011;7039;52.168;9.866;2023-04-24T13:03:25;1.60;;;1.20;;
13933;SDS011;7039;52.168;9.866;2023-04-24T13:05:52;1.23;;;1.13;;
13933;SDS011;7039;52.168;9.866;2023-04-24T13:08:18;1.20;;;1.10;;
13933;SDS011;7039;52.168;9.866;2023-04-24T13:10:45;1.33;;;1.23;;
13933;SDS011;7039;52.168;9.866;2023-04-24T13:13:12;1.30;;;1.20;;
13933;SDS011;7039;52.168;9.866;2023-04-24T13:15:38;4.23;;;1.20;;
13933;SDS011;7039;52.168;9.866;2023-04-24T13:18:06;1.00;;;0.97;;
13933;SDS011;7039;52.168;9.866;2023-04-24T13:20:32;1.27;;;1.20;;
13933;SDS011;7039;52.168;9.866;2023-04-24T13:23:00;1.77;;;1.10;;
13933;SDS011;7039;52.168;9.866;2023-04-24T13:25:26;2.77;;;1.10;;
13933;SDS011;7039;52.168;9.866;2023-04-24T13:27:53;1.40;;;1.30;;
13933;SDS011;7039;52.168;9.866;2023-04-24T13:30:20;1.50;;;1.40;;
13933;SDS011;7039;52.168;9.866;2023-04-24T13:32:46;1.10;;;1.00;;
13933;SDS011;7039;52.168;9.866;2023-04-24T13:35:14;1.10;;;1.00;;
13933;SDS011;7039;52.168;9.866;2023-04-24T13:37:40;2.70;;;0.90;;
13933;SDS011;7039;52.168;9.866;2023-04-24T13:40:07;0.60;;;0.60;;
13933;SDS011;7039;52.168;9.866;2023-04-24T13:42:34;0.70;;;0.70;;
13933;SDS011;7039;52.168;9.866;2023-04-24T13:45:01;2.30;;;0.80;;
13933;SDS011;7039;52.168;9.866;2023-04-24T13:47:28;1.00;;;0.90;;
13933;SDS011;7039;52.168;9.866;2023-04-24T13:49:55;2.50;;;0.97;;
13933;SDS011;7039;52.168;9.866;2023-04-24T13:52:22;1.13;;;0.60;;
13933;SDS011;7039;52.168;9.866;2023-04-24T13:54:49;0.40;;;0.40;;
13933;SDS011;7039;52.168;9.866;2023-04-24T13:57:15;0.40;;;0.40;;
13933;SDS011;7039;52.168;9.866;2023-04-24T13:59:42;0.43;;;0.40;;
13933;SDS011;7039;52.168;9.866;2023-04-24T14:02:10;1.63;;;0.50;;
13933;SDS011;7039;52.168;9.866;2023-04-24T14:04:36;0.40;;;0.40;;
13933;SDS011;7039;52.168;9.866;2023-04-24T14:07:03;0.40;;;0.40;;
13933;SDS011;7039;52.168;9.866;2023-04-24T14:09:30;0.50;;;0.40;;
13933;SDS011;7039;52.168;9.866;2023-04-24T14:11:57;0.67;;;0.67;;
13933;SDS011;7039;52.168;9.866;2023-04-24T14:14:23;0.60;;;0.60;;
13933;SDS011;7039;52.168;9.866;2023-04-24T14:16:50;1.00;;;0.60;;
13933;SDS011;7039;52.168;9.866;2023-04-24T14:19:16;1.00;;;0.77;;
13933;SDS011;7039;52.168;9.866;2023-04-24T14:21:43;0.60;;;0.60;;
13933;SDS011;7039;52.168;9.866;2023-04-24T14:24:09;2.00;;;0.73;;
13933;SDS011;7039;52.168;9.866;2023-04-24T14:26:37;1.00;;;0.87;;
13933;SDS011;7039;52.168;9.866;2023-04-24T14:29:04;0.70;;;0.70;;
13933;SDS011;7039;52.168;9.866;2023-04-24T14:31:30;1.00;;;0.80;;
13933;SDS011;7039;52.168;9.866;2023-04-24T14:33:57;2.53;;;1.30;;
13933;SDS011;7039;52.168;9.866;2023-04-24T14:36:23;1.50;;;1.33;;
13933;SDS011;7039;52.168;9.866;2023-04-24T14:38:50;1.80;;;1.13;;
13933;SDS011;7039;52.168;9.866;2023-04-24T14:41:16;1.30;;;1.20;;
13933;SDS011;7039;52.168;9.866;2023-04-24T14:43:44;1.80;;;1.20;;
13933;SDS011;7039;52.168;9.866;2023-04-24T14:46:10;1.67;;;1.57;;
13933;SDS011;7039;52.168;9.866;2023-04-24T14:48:37;1.13;;;1.03;;
13933;SDS011;7039;52.168;9.866;2023-04-24T14:51:03;1.40;;;0.97;;
13933;SDS011;7039;52.168;9.866;2023-04-24T14:53:30;2.00;;;1.50;;
13933;SDS011;7039;52.168;9.866;2023-04-24T14:55:56;1.67;;;1.40;;
13933;SDS011;7039;52.168;9.866;2023-04-24T14:58:23;2.20;;;1.80;;
13933;SDS011;7039;52.168;9.866;2023-04-24T15:00:50;3.43;;;1.77;;
13933;SDS011;7039;52.168;9.866;2023-04-24T15:03:19;2.33;;;1.80;;
13933;SDS011;7039;52.168;9.866;2023-04-24T15:05:46;6.43;;;2.30;;